createdAt,value
2023-02-23T00:00:21.210Z,46.69
2023-02-23T00:02:49.755Z,45.23
2023-02-23T00:05:17.309Z,45.44
2023-02-23T00:07:45.142Z,44.57
2023-02-23T00:10:13.474Z,44.16
2023-02-23T00:12:41.458Z,48.23
2023-02-23T00:15:08.890Z,48.10
2023-02-23T00:17:36.897Z,45.69
2023-02-23T00:20:08.002Z,47.06
2023-02-23T00:22:35.458Z,48.32
2023-02-23T00:25:03.336Z,46.02
2023-02-23T00:27:30.563Z,45.52
2023-02-23T00:29:58.024Z,47.45
2023-02-23T00:32:25.403Z,44.99
2023-02-23T00:34:52.581Z,45.65
2023-02-23T00:37:20.083Z,45.71
2023-02-23T00:39:48.722Z,44.82
2023-02-23T00:42:16.002Z,47.54
2023-02-23T00:44:43.444Z,47.78
2023-02-23T00:47:10.840Z,46.71
2023-02-23T00:49:37.992Z,46.39
2023-02-23T00:52:05.516Z,47.44
2023-02-23T00:54:32.760Z,46.08
2023-02-23T00:56:59.929Z,46.24
2023-02-23T00:59:29.666Z,45.10
2023-02-23T01:01:57.613Z,45.81
2023-02-23T01:04:24.756Z,44.26
2023-02-23T01:06:52.171Z,46.41
2023-02-23T01:09:28.162Z,46.55
2023-02-23T01:11:56.651Z,45.93
2023-02-23T01:14:23.871Z,45.58
2023-02-23T01:16:51.282Z,47.00
2023-02-23T01:19:21.289Z,45.91
2023-02-23T01:21:49.220Z,45.52
2023-02-23T01:24:17.913Z,45.86
2023-02-23T01:26:45.428Z,45.16
2023-02-23T01:29:16.630Z,46.72
2023-02-23T01:31:45.105Z,45.53
2023-02-23T01:34:15.723Z,47.56
2023-02-23T01:36:45.132Z,46.66
2023-02-23T01:39:14.313Z,46.50
2023-02-23T01:41:42.507Z,45.92
2023-02-23T01:44:12.742Z,46.88
2023-02-23T01:46:41.063Z,47.45
2023-02-23T01:49:09.182Z,47.28
2023-02-23T01:51:40.993Z,46.33
2023-02-23T01:54:16.275Z,45.58
2023-02-23T01:56:49.271Z,45.91
2023-02-23T01:59:16.895Z,45.63
2023-02-23T02:01:44.123Z,44.91
2023-02-23T02:04:16.464Z,45.86
2023-02-23T02:06:45.169Z,45.76
2023-02-23T02:09:17.444Z,45.06
2023-02-23T02:11:46.433Z,44.35
2023-02-23T02:14:16.636Z,44.68
2023-02-23T02:16:46.883Z,44.66
2023-02-23T02:19:18.725Z,44.84
2023-02-23T02:22:04.939Z,45.64
2023-02-23T02:24:38.433Z,44.28
2023-02-23T02:27:20.913Z,47.24
2023-02-23T02:29:52.955Z,45.38
2023-02-23T02:32:20.140Z,46.49
2023-02-23T02:34:48.456Z,45.20
2023-02-23T02:37:21.055Z,44.37
2023-02-23T02:39:53.650Z,45.32
2023-02-23T02:42:35.010Z,44.19
2023-02-23T02:45:22.757Z,45.06
2023-02-23T02:47:55.105Z,45.91
2023-02-23T02:50:31.500Z,44.86
2023-02-23T02:53:05.491Z,44.89
2023-02-23T02:55:34.792Z,46.65
2023-02-23T02:58:02.549Z,46.29
2023-02-23T03:00:49.972Z,45.06
2023-02-23T03:03:48.966Z,46.36
2023-02-23T03:06:35.074Z,45.54
2023-02-23T03:09:41.530Z,44.26
2023-02-23T03:12:30.026Z,44.32
2023-02-23T03:15:28.413Z,46.08
2023-02-23T03:18:17.876Z,45.20
2023-02-23T03:21:09.044Z,44.24
2023-02-23T03:24:02.968Z,46.25
2023-02-23T03:26:55.217Z,43.98
2023-02-23T03:29:47.387Z,44.61
2023-02-23T03:32:36.489Z,45.82
2023-02-23T03:35:32.162Z,45.00
2023-02-23T03:38:22.394Z,44.55
2023-02-23T03:41:08.167Z,45.68
2023-02-23T03:43:55.920Z,44.62
2023-02-23T03:46:41.886Z,46.45
2023-02-23T03:49:28.071Z,45.92
2023-02-23T03:52:18.659Z,46.34
2023-02-23T03:55:06.368Z,46.23
2023-02-23T03:57:52.654Z,45.53
2023-02-23T04:00:41.254Z,46.21
2023-02-23T04:03:27.545Z,45.53
2023-02-23T04:06:13.235Z,46.17
2023-02-23T04:08:59.441Z,45.11
2023-02-23T04:11:57.857Z,45.01
2023-02-23T04:14:27.138Z,48.18
2023-02-23T04:16:54.231Z,47.55
2023-02-23T04:19:21.387Z,45.01
2023-02-23T04:21:48.854Z,45.16
2023-02-23T04:24:16.236Z,45.90
2023-02-23T04:26:43.560Z,44.73
2023-02-23T04:29:11.731Z,44.44
2023-02-23T04:31:38.964Z,45.97
2023-02-23T04:34:06.186Z,47.88
2023-02-23T04:36:33.782Z,46.41
2023-02-23T04:39:00.927Z,45.15
2023-02-23T04:41:28.111Z,45.78
2023-02-23T04:43:55.491Z,47.94
2023-02-23T04:46:22.892Z,46.92
2023-02-23T04:48:50.106Z,45.18
2023-02-23T04:51:17.717Z,44.81
2023-02-23T04:53:44.974Z,47.15
2023-02-23T04:56:12.121Z,45.47
2023-02-23T04:58:39.516Z,45.81
2023-02-23T05:01:07.527Z,46.32
2023-02-23T05:03:35.144Z,46.06
2023-02-23T05:06:02.704Z,46.21
2023-02-23T05:08:29.824Z,46.08
2023-02-23T05:10:57.054Z,45.77
2023-02-23T05:13:24.609Z,45.67
2023-02-23T05:15:55.781Z,45.76
2023-02-23T05:18:23.694Z,47.91
2023-02-23T05:20:51.116Z,45.72
2023-02-23T05:23:18.466Z,46.31
2023-02-23T05:25:45.677Z,47.91
2023-02-23T05:28:13.142Z,47.49
2023-02-23T05:30:40.365Z,48.34
2023-02-23T05:33:07.541Z,47.14
2023-02-23T05:35:35.704Z,46.13
2023-02-23T05:38:02.853Z,46.32
2023-02-23T05:40:30.257Z,46.17
2023-02-23T05:43:00.437Z,46.05
2023-02-23T05:45:27.733Z,45.50
2023-02-23T05:47:55.017Z,47.13
2023-02-23T05:50:22.458Z,45.67
2023-02-23T05:52:49.578Z,47.24
2023-02-23T05:55:16.809Z,47.72
2023-02-23T05:57:45.543Z,46.37
2023-02-23T06:00:15.675Z,46.19
2023-02-23T06:02:43.215Z,46.10
2023-02-23T06:05:11.243Z,46.26
2023-02-23T06:07:38.351Z,45.26
2023-02-23T06:10:06.013Z,45.80
2023-02-23T06:12:33.185Z,46.72
2023-02-23T06:15:00.308Z,46.89
2023-02-23T06:17:27.771Z,49.49
2023-02-23T06:19:55.193Z,47.19
2023-02-23T06:22:22.892Z,46.41
2023-02-23T06:24:50.406Z,46.55
2023-02-23T06:27:17.584Z,46.18
2023-02-23T06:29:44.717Z,46.46
2023-02-23T06:32:12.243Z,46.11
2023-02-23T06:34:40.501Z,45.41
2023-02-23T06:37:09.853Z,43.86
2023-02-23T06:39:37.321Z,45.46
2023-02-23T06:42:04.431Z,45.03
2023-02-23T06:44:35.345Z,44.51
2023-02-23T06:47:05.686Z,45.14
2023-02-23T06:49:32.950Z,45.66
2023-02-23T06:52:00.199Z,46.33
2023-02-23T06:54:27.632Z,43.85
2023-02-23T06:56:56.766Z,44.38
2023-02-23T06:59:24.332Z,45.14
2023-02-23T07:01:51.823Z,44.15
2023-02-23T07:04:19.127Z,44.17
2023-02-23T07:06:46.329Z,44.05
2023-02-23T07:09:15.531Z,44.88
2023-02-23T07:11:44.748Z,46.67
2023-02-23T07:14:15.364Z,45.00
2023-02-23T07:16:48.875Z,45.62
2023-02-23T07:19:16.191Z,44.90
2023-02-23T07:21:43.304Z,47.22
2023-02-23T07:24:10.746Z,46.06
2023-02-23T07:26:37.918Z,47.24
2023-02-23T07:29:05.072Z,45.29
2023-02-23T07:31:32.564Z,44.56
2023-02-23T07:33:59.795Z,44.64
2023-02-23T07:36:26.958Z,44.46
2023-02-23T07:38:54.452Z,45.00
2023-02-23T07:41:22.199Z,45.94
2023-02-23T07:43:49.756Z,44.26
2023-02-23T07:46:17.499Z,44.86
2023-02-23T07:48:44.995Z,43.60
2023-02-23T07:51:12.905Z,43.67
2023-02-23T07:53:40.991Z,45.09
2023-02-23T07:56:10.957Z,42.94
2023-02-23T07:58:38.738Z,43.35
2023-02-23T08:01:06.304Z,42.87
2023-02-23T08:03:33.837Z,42.44
2023-02-23T08:06:01.012Z,43.77
2023-02-23T08:08:28.214Z,43.43
2023-02-23T08:11:02.136Z,43.41
2023-02-23T08:13:29.885Z,43.87
2023-02-23T08:15:57.619Z,43.08
2023-02-23T08:18:24.957Z,43.57
2023-02-23T08:20:57.509Z,44.96
2023-02-23T08:23:24.981Z,45.21
2023-02-23T08:25:53.947Z,43.60
2023-02-23T08:28:21.174Z,42.84
2023-02-23T08:30:48.755Z,41.67
2023-02-23T08:33:15.951Z,43.65
2023-02-23T08:35:43.159Z,42.86
2023-02-23T08:38:10.689Z,44.11
2023-02-23T08:40:37.880Z,42.31
2023-02-23T08:43:05.102Z,41.99
2023-02-23T08:45:32.573Z,42.47
2023-02-23T08:47:59.926Z,42.22
2023-02-23T08:50:27.569Z,42.23
2023-02-23T08:52:55.202Z,43.07
2023-02-23T08:55:23.939Z,43.81
2023-02-23T08:57:51.099Z,43.13
2023-02-23T09:00:18.909Z,43.41
2023-02-23T09:02:48.314Z,43.45
2023-02-23T09:05:15.670Z,42.46
2023-02-23T09:07:46.569Z,42.38
2023-02-23T09:10:15.031Z,41.05
2023-02-23T09:12:42.463Z,40.90
2023-02-23T09:15:09.872Z,40.89
2023-02-23T09:17:37.071Z,40.87
2023-02-23T09:20:05.248Z,40.60
2023-02-23T09:22:32.550Z,40.67
2023-02-23T09:24:59.674Z,40.25
2023-02-23T09:27:27.170Z,40.79
2023-02-23T09:29:54.392Z,42.00
2023-02-23T09:32:21.661Z,41.13
2023-02-23T09:34:49.741Z,42.28
2023-02-23T09:37:16.989Z,41.37
2023-02-23T09:39:45.758Z,40.04
2023-02-23T09:42:13.231Z,40.91
2023-02-23T09:44:46.661Z,40.42
2023-02-23T09:47:36.377Z,41.27
2023-02-23T09:50:04.580Z,40.57
2023-02-23T09:52:39.410Z,40.75
2023-02-23T09:55:06.911Z,40.59
2023-02-23T09:57:38.518Z,44.10
2023-02-23T10:00:32.449Z,42.82
2023-02-23T10:03:23.221Z,41.00
2023-02-23T10:05:54.838Z,41.50
2023-02-23T10:08:24.303Z,40.90
2023-02-23T10:10:55.007Z,41.01
2023-02-23T10:13:28.520Z,41.90
2023-02-23T10:15:57.702Z,41.29
2023-02-23T10:18:44.969Z,40.10
2023-02-23T10:21:18.710Z,40.21
2023-02-23T10:23:48.413Z,41.84
2023-02-23T10:26:16.672Z,40.79
2023-02-23T10:28:44.913Z,43.10
2023-02-23T10:31:23.615Z,41.76
2023-02-23T10:33:50.845Z,41.94
2023-02-23T10:36:19.775Z,40.82
2023-02-23T10:38:47.057Z,40.73
2023-02-23T10:41:15.062Z,40.99
2023-02-23T10:43:42.600Z,40.55
2023-02-23T10:46:11.991Z,41.79
2023-02-23T10:48:43.285Z,40.70
2023-02-23T10:51:16.537Z,41.06
2023-02-23T10:53:43.763Z,41.38
2023-02-23T10:56:13.797Z,40.58
2023-02-23T10:58:55.145Z,42.15
2023-02-23T11:02:00.463Z,40.84
2023-02-23T11:04:31.896Z,39.53
2023-02-23T11:07:07.000Z,40.03
2023-02-23T11:09:45.680Z,42.17
2023-02-23T11:12:29.708Z,41.34
2023-02-23T11:14:57.363Z,41.23
2023-02-23T11:17:29.688Z,40.38
2023-02-23T11:20:03.184Z,38.66
2023-02-23T11:22:31.345Z,40.02
2023-02-23T11:24:58.546Z,40.01
2023-02-23T11:27:26.585Z,39.15
2023-02-23T11:29:55.307Z,39.08
2023-02-23T11:32:23.940Z,39.47
2023-02-23T11:35:11.084Z,39.66
2023-02-23T11:37:38.521Z,39.08
2023-02-23T11:40:17.951Z,41.03
2023-02-23T11:42:55.638Z,39.38
2023-02-23T11:45:23.570Z,41.50
2023-02-23T11:47:51.813Z,39.50
2023-02-23T11:50:26.458Z,38.53
2023-02-23T11:52:59.452Z,41.30
2023-02-23T11:55:26.919Z,40.45
2023-02-23T11:57:56.839Z,39.41
2023-02-23T12:00:25.341Z,39.83
2023-02-23T12:02:55.510Z,41.50
2023-02-23T12:05:27.004Z,40.79
2023-02-23T12:07:56.300Z,39.06
2023-02-23T12:10:24.821Z,39.42
2023-02-23T12:12:51.977Z,40.00
2023-02-23T12:15:22.554Z,39.22
2023-02-23T12:17:51.595Z,38.93
2023-02-23T12:20:21.619Z,39.16
2023-02-23T12:22:51.493Z,39.62
2023-02-23T12:25:23.105Z,39.62
2023-02-23T12:27:53.914Z,42.40
2023-02-23T12:30:36.448Z,40.13
2023-02-23T12:33:10.066Z,40.21
2023-02-23T12:35:56.155Z,39.32
2023-02-23T12:38:30.886Z,40.26
2023-02-23T12:41:11.379Z,39.71
2023-02-23T12:43:59.019Z,40.00
2023-02-23T12:46:26.864Z,39.72
2023-02-23T12:49:00.553Z,40.09
2023-02-23T12:51:30.313Z,40.21
2023-02-23T12:53:57.764Z,40.53
2023-02-23T12:56:44.252Z,39.21
2023-02-23T12:59:21.972Z,40.69
2023-02-23T13:01:52.289Z,40.29
2023-02-23T13:04:25.525Z,40.42
2023-02-23T13:07:11.923Z,39.85
2023-02-23T13:09:39.416Z,41.80
2023-02-23T13:12:15.256Z,40.70
2023-02-23T13:14:45.838Z,43.17
2023-02-23T13:17:22.430Z,41.02
2023-02-23T13:19:50.997Z,40.57
2023-02-23T13:22:36.700Z,39.99
2023-02-23T13:25:07.750Z,41.36
2023-02-23T13:27:35.995Z,40.03
2023-02-23T13:30:04.031Z,39.76
2023-02-23T13:32:32.591Z,40.15
2023-02-23T13:35:00.889Z,40.01
2023-02-23T13:37:35.096Z,38.74
2023-02-23T13:40:02.342Z,40.00
2023-02-23T13:42:30.954Z,39.61
2023-02-23T13:45:12.846Z,39.09
2023-02-23T13:47:46.520Z,40.36
2023-02-23T13:50:25.474Z,42.16
2023-02-23T13:52:58.417Z,40.18
2023-02-23T13:55:25.578Z,38.84
2023-02-23T13:57:53.788Z,40.05
2023-02-23T14:00:21.553Z,39.34
2023-02-23T14:02:49.329Z,38.24
2023-02-23T14:05:16.515Z,39.46
2023-02-23T14:07:45.130Z,38.22
2023-02-23T14:10:25.572Z,37.80
2023-02-23T14:13:11.124Z,39.29
2023-02-23T14:15:38.511Z,38.96
2023-02-23T14:18:17.742Z,39.09
2023-02-23T14:20:51.241Z,38.36
2023-02-23T14:23:18.669Z,38.48
2023-02-23T14:25:46.741Z,38.47
2023-02-23T14:28:30.730Z,38.52
2023-02-23T14:31:13.305Z,37.98
2023-02-23T14:33:45.760Z,38.06
2023-02-23T14:36:33.521Z,38.38
2023-02-23T14:39:01.177Z,37.56
2023-02-23T14:41:35.884Z,40.87
2023-02-23T14:44:07.846Z,38.45
2023-02-23T14:46:38.227Z,39.82
2023-02-23T14:49:12.559Z,39.36
2023-02-23T14:51:42.513Z,38.94
2023-02-23T14:54:11.479Z,40.32
2023-02-23T14:56:46.856Z,39.24
2023-02-23T14:59:17.811Z,39.11
2023-02-23T15:01:45.035Z,38.38
2023-02-23T15:04:13.124Z,38.55
2023-02-23T15:06:42.454Z,38.35
2023-02-23T15:09:12.276Z,38.29
2023-02-23T15:11:39.413Z,39.20
2023-02-23T15:14:10.518Z,38.57
2023-02-23T15:16:45.025Z,39.24
2023-02-23T15:19:16.767Z,39.20
2023-02-23T15:21:49.861Z,38.56
2023-02-23T15:24:19.296Z,40.59
2023-02-23T15:26:46.470Z,41.00
2023-02-23T15:29:14.996Z,40.58
2023-02-23T15:31:52.863Z,39.54
2023-02-23T15:34:21.172Z,38.90
2023-02-23T15:36:50.217Z,39.29
2023-02-23T15:39:17.880Z,38.84
2023-02-23T15:41:46.124Z,39.40
2023-02-23T15:44:24.200Z,37.85
2023-02-23T15:46:53.105Z,39.41
2023-02-23T15:49:21.992Z,37.57
2023-02-23T15:51:50.316Z,37.77
2023-02-23T15:54:19.279Z,38.69
2023-02-23T15:56:50.579Z,38.13
2023-02-23T15:59:24.004Z,37.86
2023-02-23T16:01:53.972Z,38.13
2023-02-23T16:04:23.391Z,37.83
2023-02-23T16:06:53.419Z,38.29
2023-02-23T16:09:24.087Z,38.04
2023-02-23T16:11:52.852Z,38.67
2023-02-23T16:14:20.420Z,37.51
2023-02-23T16:17:01.381Z,38.13
2023-02-23T16:19:40.835Z,37.48
2023-02-23T16:22:08.110Z,38.99
2023-02-23T16:24:35.725Z,38.54
2023-02-23T16:27:03.559Z,38.37
2023-02-23T16:29:32.589Z,37.60
2023-02-23T16:32:01.510Z,38.06
2023-02-23T16:34:31.522Z,38.25
2023-02-23T16:36:59.549Z,38.34
2023-02-23T16:39:29.460Z,38.17
2023-02-23T16:41:58.599Z,37.53
2023-02-23T16:44:34.368Z,37.60
2023-02-23T16:47:09.201Z,37.54
2023-02-23T16:49:36.549Z,37.73
2023-02-23T16:52:06.552Z,37.71
2023-02-23T16:54:34.537Z,37.91
2023-02-23T16:57:11.367Z,38.20
2023-02-23T16:59:39.079Z,38.41
2023-02-23T17:02:09.843Z,37.70
2023-02-23T17:04:37.008Z,37.53
2023-02-23T17:07:04.689Z,37.45
2023-02-23T17:09:31.928Z,37.41
2023-02-23T17:11:59.928Z,37.29
2023-02-23T17:14:28.197Z,37.22
2023-02-23T17:16:56.194Z,37.07
2023-02-23T17:19:25.704Z,37.33
2023-02-23T17:21:53.629Z,37.28
2023-02-23T17:24:25.872Z,37.06
2023-02-23T17:26:53.619Z,37.10
2023-02-23T17:29:20.995Z,37.44
2023-02-23T17:31:48.444Z,37.18
2023-02-23T17:34:17.190Z,37.22
2023-02-23T17:36:44.485Z,37.72
2023-02-23T17:39:14.237Z,38.00
2023-02-23T17:41:41.832Z,37.86
2023-02-23T17:44:09.334Z,38.53
2023-02-23T17:46:36.755Z,38.41
2023-02-23T17:49:04.751Z,38.93
2023-02-23T17:51:32.190Z,37.88
2023-02-23T17:53:59.530Z,37.52
2023-02-23T17:56:28.282Z,37.66
2023-02-23T17:58:55.487Z,37.62
2023-02-23T18:01:23.239Z,37.80
2023-02-23T18:03:51.449Z,37.83
2023-02-23T18:06:19.835Z,37.84
2023-02-23T18:08:47.011Z,37.80
2023-02-23T18:11:18.593Z,38.13
2023-02-23T18:13:47.956Z,39.01
2023-02-23T18:16:16.139Z,39.84
2023-02-23T18:18:44.518Z,39.74
2023-02-23T18:21:13.018Z,38.41
2023-02-23T18:23:40.668Z,38.01
2023-02-23T18:26:15.339Z,38.54
2023-02-23T18:28:45.787Z,38.18
2023-02-23T18:31:17.675Z,37.90
2023-02-23T18:33:46.349Z,38.55
2023-02-23T18:36:18.228Z,38.19
2023-02-23T18:38:45.866Z,38.04
2023-02-23T18:41:13.304Z,39.33
2023-02-23T18:43:40.989Z,39.48
2023-02-23T18:46:09.578Z,39.25
2023-02-23T18:48:37.677Z,40.02
2023-02-23T18:51:12.384Z,39.66
2023-02-23T18:53:40.249Z,38.78
2023-02-23T18:56:08.296Z,38.12
2023-02-23T18:58:35.755Z,39.54
2023-02-23T19:01:10.094Z,39.84
2023-02-23T19:03:37.557Z,40.16
2023-02-23T19:06:10.491Z,40.79
2023-02-23T19:08:38.103Z,40.37
2023-02-23T19:11:05.805Z,39.52
2023-02-23T19:13:33.213Z,40.62
2023-02-23T19:16:09.726Z,40.92
2023-02-23T19:18:37.225Z,41.38
2023-02-23T19:21:04.938Z,39.92
2023-02-23T19:23:32.559Z,39.96
2023-02-23T19:26:02.528Z,41.05
2023-02-23T19:28:30.228Z,41.57
2023-02-23T19:31:03.034Z,41.96
2023-02-23T19:33:30.846Z,40.71
2023-02-23T19:36:01.192Z,40.30
2023-02-23T19:38:28.657Z,40.14
2023-02-23T19:40:57.343Z,40.54
2023-02-23T19:43:24.782Z,42.37
2023-02-23T19:45:52.473Z,42.11
2023-02-23T19:48:20.471Z,41.42
2023-02-23T19:50:48.170Z,40.95
2023-02-23T19:53:16.217Z,40.96
2023-02-23T19:55:45.281Z,40.21
2023-02-23T19:58:12.576Z,40.83
2023-02-23T20:00:39.993Z,40.81
2023-02-23T20:03:07.537Z,41.96
2023-02-23T20:05:42.275Z,43.28
2023-02-23T20:08:10.031Z,42.84
2023-02-23T20:10:41.544Z,43.55
2023-02-23T20:13:10.651Z,43.36
2023-02-23T20:15:38.296Z,42.91
2023-02-23T20:18:07.317Z,43.11
2023-02-23T20:20:35.924Z,44.02
2023-02-23T20:23:07.770Z,45.11
2023-02-23T20:25:36.359Z,44.42
2023-02-23T20:28:04.177Z,43.88
2023-02-23T20:30:31.647Z,43.58
2023-02-23T20:32:59.081Z,45.83
2023-02-23T20:35:27.823Z,44.18
2023-02-23T20:37:55.197Z,46.19
2023-02-23T20:40:23.224Z,46.13
2023-02-23T20:42:51.592Z,47.91
2023-02-23T20:45:20.034Z,46.99
2023-02-23T20:47:51.942Z,45.90
2023-02-23T20:50:21.630Z,44.91
2023-02-23T20:52:49.180Z,44.12
2023-02-23T20:55:18.794Z,43.55
2023-02-23T20:57:47.725Z,43.27
2023-02-23T21:00:20.283Z,42.53
2023-02-23T21:02:48.155Z,42.38
2023-02-23T21:05:15.652Z,42.04
2023-02-23T21:07:43.073Z,42.55
2023-02-23T21:10:13.875Z,41.09
2023-02-23T21:12:41.417Z,40.73
2023-02-23T21:15:09.416Z,43.26
2023-02-23T21:17:38.572Z,41.84
2023-02-23T21:20:06.801Z,41.37
2023-02-23T21:22:34.667Z,41.30
2023-02-23T21:25:02.233Z,41.52
2023-02-23T21:27:29.582Z,41.29
2023-02-23T21:29:56.911Z,42.81
2023-02-23T21:32:27.162Z,41.39
2023-02-23T21:34:54.721Z,40.78
2023-02-23T21:37:25.305Z,41.88
2023-02-23T21:39:53.199Z,41.64
2023-02-23T21:42:23.664Z,41.07
2023-02-23T21:44:51.195Z,41.38
2023-02-23T21:47:18.763Z,41.13
2023-02-23T21:49:49.267Z,40.47
2023-02-23T21:52:16.837Z,41.32
2023-02-23T21:54:48.232Z,43.29
2023-02-23T21:57:15.718Z,42.81
2023-02-23T21:59:43.052Z,41.10
2023-02-23T22:02:11.016Z,41.67
2023-02-23T22:04:38.934Z,41.21
2023-02-23T22:07:06.467Z,40.37
2023-02-23T22:09:33.812Z,40.16
2023-02-23T22:12:01.553Z,41.11
2023-02-23T22:14:28.709Z,41.03
2023-02-23T22:16:55.917Z,40.51
2023-02-23T22:19:23.369Z,41.51
2023-02-23T22:21:50.531Z,41.02
2023-02-23T22:24:17.808Z,42.73
2023-02-23T22:26:55.129Z,43.64
2023-02-23T22:29:23.269Z,42.18
2023-02-23T22:31:50.946Z,41.06
2023-02-23T22:34:18.772Z,41.21
2023-02-23T22:36:45.925Z,40.75
2023-02-23T22:39:16.321Z,41.20
2023-02-23T22:41:43.647Z,41.12
2023-02-23T22:44:16.760Z,43.65
2023-02-23T22:46:46.551Z,41.67
2023-02-23T22:49:15.779Z,41.37
2023-02-23T22:51:43.481Z,41.16
2023-02-23T22:54:13.317Z,41.07
2023-02-23T22:56:42.262Z,40.83
2023-02-23T22:59:11.096Z,42.43
2023-02-23T23:01:38.828Z,41.46
2023-02-23T23:04:12.549Z,41.01
2023-02-23T23:06:40.891Z,41.90
2023-02-23T23:09:08.829Z,41.26
2023-02-23T23:11:41.875Z,41.22
2023-02-23T23:14:10.391Z,41.57
2023-02-23T23:16:47.506Z,41.62
2023-02-23T23:19:16.808Z,41.74
2023-02-23T23:21:45.136Z,40.83
2023-02-23T23:24:13.513Z,41.51
2023-02-23T23:26:42.948Z,41.42
2023-02-23T23:29:11.344Z,40.89
2023-02-23T23:31:39.200Z,40.59
2023-02-23T23:34:09.318Z,41.70
2023-02-23T23:36:37.930Z,40.91
2023-02-23T23:39:06.216Z,42.27
2023-02-23T23:41:35.467Z,41.96
2023-02-23T23:44:05.066Z,41.36
2023-02-23T23:46:37.665Z,40.96
2023-02-23T23:49:06.524Z,41.08
2023-02-23T23:51:38.788Z,41.90
2023-02-23T23:54:07.703Z,41.49
2023-02-23T23:56:35.933Z,41.02
2023-02-23T23:59:07.212Z,41.36
